Domov               UVHVVR             MKGP            O straneh              
ZDRAVSTVENO VARSTVO RASTLIN
  MREŽA AGROMET. POSTAJ
 ► PROGNOSTIČNA OBVESTILA
AGROMETEOROLOŠKI PODATKI -
ARSO
OBVLADOVANJE TVEGANJ ZARADI
NEUGODNIH VREMENSKIH RAZMER
  ► NARAVNE NESREČE
  ► SUŠA/MOČA
  ► NAMAKANJE
  ► ŽLED (gozdarstvo)
KARTOGRAFSKI PRIKAZI
SPLETNE POVEZAVE
PROJEKTI IN PUBLIKACIJE

AGROMETEOROLOŠKA MREŽA: VREMENSKE POSTAJE IN FENOLOŠKA OPAZOVANJA

Pregled podatkov za lokacijo Kovor, meteorološka postaja 45205

Pregled senzorjev na lokaciji

ID Ime Zadnja
vrednost
Datum
zadnje
spremembe
Tip
senzorja
3143 Padavine 0.2 mm (mm) 0 mm 17.8.2017 17:00 Rain-O-Matic
3144 Temperatura 2 m ( °C) 28,47 °C 17.8.2017 17:00 50YA
3145 Relativna vlaga 2 m (% RH) 48,51 % RH 17.8.2017 17:00 50YA
3146 Omočenost lista (U) 0 U 17.8.2017 17:00 A730WET
3147 Temperatura tal ( °C) 21,49 °C 17.8.2017 17:00 99TG411E
3954 Temperatura 20 cm ( °C) 29,32 °C 17.8.2017 17:00 50YA
3955 Relativna vlaga 20 cm (% RH) 51,83 % RH 17.8.2017 17:00 50YA

Pregled podatkov zadnjih 24 ur

Zap.
št.
Datum in čas Kovor
Omočenost
lista
Padavine
0.2
mm
Relativna
vlaga
2
m
Relativna
vlaga
20
cm
Temperatura
2
m
Temperatura
20
cm
Temperatura
tal
0 17.8.2017 16:00 0 0 48,51 51,83 28,47 29,32 21,49
1 17.8.2017 15:30 0 0 48,53 51,26 28,27 29,74 21,38
2 17.8.2017 15:00 0 0 48,83 50,89 28,29 30,37 21,2
3 17.8.2017 14:30 0 0 48,15 50,15 28,18 30,07 21,06
4 17.8.2017 14:00 0 0 50,68 51,13 27,92 30,06 20,9
5 17.8.2017 13:30 0 0 50,42 51,4 27,6 30 20,75
6 17.8.2017 13:00 0 0 50,81 51,46 27,51 29,91 20,58
7 17.8.2017 12:30 0 0 52,59 52,73 27,01 29,76 20,41
8 17.8.2017 12:00 0 0 53,61 53,79 26,28 29,03 20,26
9 17.8.2017 11:30 0 0 54,13 54,25 26,07 28,64 20,1
10 17.8.2017 11:00 0 0 53,76 54,6 25,45 27,8 19,94
11 17.8.2017 10:30 0 0 56,79 57,97 25,2 27,14 19,77
12 17.8.2017 10:00 0 0 62,48 67,06 24,28 25,03 19,64
13 17.8.2017 09:30 0 0 61,63 68 23,65 23,88 19,54
14 17.8.2017 09:00 0 0 64 69,72 22,66 22,91 19,49
15 17.8.2017 08:30 0 0 64,31 67,96 22,23 22,9 19,4
16 17.8.2017 08:00 0 0 65,73 72,98 21,75 21,55 19,25
17 17.8.2017 07:30 0 0 71,37 74,88 19,84 20,09 19,15
18 17.8.2017 07:00 0 0 77,37 77,29 17,78 18,32 19,05
19 17.8.2017 06:30 0 0 78,66 83,06 16,91 16,18 19
20 17.8.2017 06:00 0 0 77,4 82,61 17,03 16,08 19,06
21 17.8.2017 05:30 0 0 78,61 83,03 16,84 15,98 19,1
22 17.8.2017 05:00 0 0 79,95 84,17 16,72 15,9 19,17
23 17.8.2017 04:30 0 0 80,36 85,96 16,78 15,67 19,2
24 17.8.2017 04:00 1 0 84,08 88,21 16,24 15,39 19,23
25 17.8.2017 03:30 0 0 80,1 84,06 16,95 16,22 19,28
26 17.8.2017 03:00 0 0 80,26 83,82 16,89 16,27 19,32
27 17.8.2017 02:30 0 0 79,79 83,28 16,86 16,26 19,35
28 17.8.2017 02:00 0 0 78,74 81,97 16,94 16,37 19,42
29 17.8.2017 01:30 0 0 77,7 81,49 16,99 16,29 19,47
30 17.8.2017 01:00 0 0 80,18 84,41 16,54 15,78 19,51
31 17.8.2017 00:30 0 0 79,89 84,13 16,64 15,84 19,59
32 17.8.2017 00:00 0 0 78,23 82,2 17,02 16,26 19,7
33 16.8.2017 23:30 0 0 78,62 82,59 17,1 16,36 19,81
34 16.8.2017 23:00 0 0 79,77 83,93 17,04 16,29 19,89
35 16.8.2017 22:30 0 0 81,36 85,21 16,99 16,26 19,97
36 16.8.2017 22:00 0 0 80,64 84,93 17,32 16,55 20,09
37 16.8.2017 21:30 0 0 81,54 85,66 17,49 16,75 20,2
38 16.8.2017 21:00 0 0 83,84 87,55 17,58 16,89 20,31
39 16.8.2017 20:30 0 0 84,12 92,17 18,01 17,18 20,41
40 16.8.2017 20:00 0 0 83,49 90,24 18,56 17,7 20,52
41 16.8.2017 19:30 0 0 82,54 91,75 18,97 17,81 20,61
42 16.8.2017 19:00 0 0 81,43 86,93 19,28 18,53 20,71
43 16.8.2017 18:30 0 0 78,4 84,26 19,38 18,54 20,8
44 16.8.2017 18:00 10 0 78,7 87,22 19,25 18,14 20,87
45 16.8.2017 17:30 10 0,4 81,81 89,63 19,14 18,07 20,99
© 2011 Ministrstvo za kmetijstvo, gozdarstvo in prehrano. Vse pravice pridržane.